Time;durP1;ratioP1;P1;durP2;ratioP2;P2;SDS_P1;SDS_P2;PMS_P1;PMS_P2;Temp;Humidity;BMP_temperature;BMP_pressure;BME280_temperature;BME280_humidity;BME280_pressure;Samples;Min_cycle;Max_cycle;Signal;HPM_P1;HPM_P2
2023/01/21 00:02:06;;;;;;;4.20;2.40;;;;;;;1.59;92.39;98427.14;109396;1278;22635;-76
2023/01/21 00:04:36;;;;;;;5.70;2.30;;;;;;;1.60;92.49;98427.98;108712;1277;23883;-76
2023/01/21 00:07:06;;;;;;;4.40;2.60;;;;;;;1.62;92.34;98430.89;108407;1277;25394;-75
2023/01/21 00:09:37;;;;;;;4.10;2.80;;;;;;;1.62;92.44;98431.23;107275;1277;23254;-75
2023/01/21 00:12:05;;;;;;;4.20;2.50;;;;;;;1.61;92.35;98438.06;107279;1277;23004;-77
2023/01/21 00:14:33;;;;;;;4.00;2.40;;;;;;;1.65;92.12;98439.95;107302;1277;22574;-74
2023/01/21 00:17:02;;;;;;;6.00;2.40;;;;;;;1.63;92.17;98443.88;107181;1277;25261;-75
2023/01/21 00:19:30;;;;;;;3.90;2.60;;;;;;;1.63;91.98;98446.61;107353;1277;22645;-75
2023/01/21 00:21:59;;;;;;;4.10;2.30;;;;;;;1.66;91.84;98446.79;107283;1278;24221;-75
2023/01/21 00:24:27;;;;;;;4.80;2.60;;;;;;;1.66;91.77;98452.92;107267;1277;22520;-75
2023/01/21 00:26:58;;;;;;;4.50;2.70;;;;;;;1.64;91.81;98456.19;107298;1269;22566;-75
2023/01/21 00:29:29;;;;;;;3.40;2.00;;;;;;;1.63;91.71;98454.64;107237;1277;22578;-74
2023/01/21 00:31:58;;;;;;;3.60;2.20;;;;;;;1.62;91.89;98453.78;110088;1277;22449;-75
2023/01/21 00:34:27;;;;;;;3.50;2.50;;;;;;;1.61;92.15;98454.12;110148;1278;22190;-78
2023/01/21 00:36:55;;;;;;;4.50;2.40;;;;;;;1.62;92.38;98454.30;110307;1277;22183;-78
2023/01/21 00:39:30;;;;;;;4.30;2.40;;;;;;;1.64;92.49;98462.85;110225;1273;22231;-76
2023/01/21 00:42:03;;;;;;;3.90;2.60;;;;;;;1.66;92.56;98466.42;110303;1277;22258;-78
2023/01/21 00:44:32;;;;;;;4.60;2.60;;;;;;;1.68;92.57;98470.19;110170;1275;22888;-78
2023/01/21 00:47:02;;;;;;;4.60;2.80;;;;;;;1.72;92.66;98475.15;110380;1277;22271;-78
2023/01/21 00:49:31;;;;;;;4.10;2.20;;;;;;;1.77;92.46;98472.75;110296;1272;22962;-78
2023/01/21 00:52:00;;;;;;;4.10;2.50;;;;;;;1.80;92.48;98471.73;110126;1277;22254;-78
2023/01/21 00:54:31;;;;;;;3.90;2.50;;;;;;;1.84;92.56;98466.95;110283;1277;22256;-78
2023/01/21 00:56:59;;;;;;;4.00;2.40;;;;;;;1.88;92.43;98474.80;110377;1277;22239;-80
2023/01/21 00:59:28;;;;;;;4.20;2.50;;;;;;;1.90;91.87;98473.44;110475;1277;22459;-80
2023/01/21 01:01:57;;;;;;;4.20;2.60;;;;;;;1.93;91.98;98475.65;110241;1275;22612;-77
2023/01/21 01:04:25;;;;;;;4.20;2.50;;;;;;;1.95;91.86;98472.75;108125;1277;22519;-78
2023/01/21 01:06:54;;;;;;;4.70;2.60;;;;;;;1.93;91.54;98473.92;108126;1277;22912;-78
2023/01/21 01:09:27;;;;;;;3.90;2.50;;;;;;;1.91;91.23;98472.40;107457;1278;24242;-76
2023/01/21 01:11:58;;;;;;;3.50;2.10;;;;;;;1.88;91.24;98471.73;107351;1277;22657;-75
2023/01/21 01:14:26;;;;;;;5.90;2.50;;;;;;;1.88;91.03;98471.21;107334;1266;22520;-75
2023/01/21 01:16:55;;;;;;;4.90;2.40;;;;;;;1.86;91.24;98474.29;107267;1277;24269;-75
2023/01/21 01:19:23;;;;;;;4.50;2.60;;;;;;;1.86;91.31;98476.69;107344;1277;22524;-75
2023/01/21 01:21:52;;;;;;;5.40;3.00;;;;;;;1.88;91.34;98484.03;107336;1277;25542;-75
2023/01/21 01:24:20;;;;;;;4.40;2.60;;;;;;;1.87;91.26;98482.48;107410;1276;22688;-75
2023/01/21 01:26:48;;;;;;;4.90;2.50;;;;;;;1.89;91.34;98479.08;107336;1277;22676;-75
2023/01/21 01:29:17;;;;;;;4.30;2.30;;;;;;;1.88;91.33;98480.27;107357;1278;22566;-75
2023/01/21 01:31:45;;;;;;;3.60;2.30;;;;;;;1.89;91.20;98476.17;107303;1278;22632;-75
2023/01/21 01:34:18;;;;;;;4.40;2.50;;;;;;;1.90;91.34;98477.20;107341;1278;25431;-75
2023/01/21 01:36:47;;;;;;;4.00;2.60;;;;;;;1.88;91.47;98472.07;107312;1269;24187;-75
2023/01/21 01:39:16;;;;;;;5.10;2.60;;;;;;;1.90;91.34;98470.53;107316;1278;22533;-75
2023/01/21 01:41:44;;;;;;;3.60;2.30;;;;;;;1.91;91.41;98468.31;107313;1266;22559;-75
2023/01/21 01:44:50;;;;;;;5.00;2.50;;;;;;;1.90;91.46;98468.82;107297;1269;22597;-75
2023/01/21 01:47:30;;;;;;;5.70;2.90;;;;;;;1.89;91.46;98477.88;107326;1277;22498;-74
2023/01/21 01:50:00;;;;;;;4.80;2.70;;;;;;;1.87;91.34;98477.02;107305;1278;25281;-75
2023/01/21 01:52:32;;;;;;;6.00;3.10;;;;;;;1.86;91.30;98481.11;110319;1271;22186;-76
2023/01/21 01:55:03;;;;;;;5.90;2.80;;;;;;;1.84;91.14;98476.67;110123;1277;22202;-78
2023/01/21 01:57:38;;;;;;;4.40;2.70;;;;;;;1.82;91.32;98483.17;110124;1278;22210;-78
2023/01/21 02:00:10;;;;;;;5.30;2.80;;;;;;;1.82;91.21;98489.16;110284;1277;23032;-76
2023/01/21 02:02:40;;;;;;;6.10;2.60;;;;;;;1.81;91.44;98491.03;110182;1278;23097;-75
2023/01/21 02:05:10;;;;;;;5.00;2.90;;;;;;;1.79;91.55;98498.39;110150;1276;22229;-76
2023/01/21 02:07:41;;;;;;;5.70;2.80;;;;;;;1.76;91.66;98500.27;110304;1277;22183;-76
2023/01/21 02:10:13;;;;;;;4.70;2.40;;;;;;;1.76;91.44;98504.52;108168;1277;24372;-75
2023/01/21 02:12:43;;;;;;;6.50;3.30;;;;;;;1.73;91.76;98496.67;107318;1278;22516;-75
2023/01/21 02:15:16;;;;;;;5.60;2.80;;;;;;;1.73;91.73;98496.67;107225;1277;23013;-75
2023/01/21 02:18:22;;;;;;;6.50;3.30;;;;;;;1.73;91.41;98498.04;107238;1266;24196;-75
2023/01/21 02:21:09;;;;;;;6.20;3.20;;;;;;;1.66;91.99;98498.88;107334;1277;25481;-76
2023/01/21 02:24:08;;;;;;;6.40;3.20;;;;;;;1.64;92.06;98493.08;106647;1278;631137;-75
2023/01/21 02:26:40;;;;;;;6.10;2.90;;;;;;;1.60;92.44;98491.02;107339;1277;22550;-75
2023/01/21 02:29:08;;;;;;;6.90;3.50;;;;;;;1.60;92.33;98488.28;107300;1278;22674;-75
2023/01/21 02:31:45;;;;;;;5.30;3.00;;;;;;;1.56;92.55;98486.23;107168;1270;23943;-75
2023/01/21 02:34:49;;;;;;;6.30;3.40;;;;;;;1.51;92.70;98488.27;107244;1277;22517;-75
2023/01/21 02:38:11;;;;;;;6.20;3.30;;;;;;;1.52;92.31;98490.66;107321;1277;22616;-75
2023/01/21 02:41:13;;;;;;;9.10;3.90;;;;;;;1.41;92.48;98487.23;107132;1277;22642;-75
2023/01/21 02:44:03;;;;;;;5.90;2.90;;;;;;;1.36;92.11;98484.67;107292;1277;22620;-75
2023/01/21 02:47:17;;;;;;;7.90;4.00;;;;;;;1.30;92.08;98477.48;107124;1278;22532;-75
2023/01/21 02:49:52;;;;;;;3.70;2.20;;;;;;;1.20;92.75;98482.92;107213;1273;24218;-75
2023/01/21 02:52:23;;;;;;;6.80;3.50;;;;;;;1.16;92.68;98487.35;110239;1277;23075;-75
2023/01/21 02:54:58;;;;;;;6.30;3.10;;;;;;;1.12;93.31;98488.69;110300;1277;22325;-78
2023/01/21 02:58:04;;;;;;;4.00;2.30;;;;;;;1.11;93.33;98493.13;110270;1278;22216;-78
2023/01/21 03:00:53;;;;;;;5.30;2.80;;;;;;;1.12;92.93;98496.20;110034;1277;22961;-78
2023/01/21 03:03:46;;;;;;;8.20;3.30;;;;;;;1.10;93.30;98495.35;110305;1277;23083;-78
2023/01/21 03:06:31;;;;;;;9.00;3.20;;;;;;;1.10;93.53;98504.39;110274;1278;23048;-78
2023/01/21 03:09:21;;;;;;;6.60;3.10;;;;;;;1.10;93.74;98514.29;110262;1278;22172;-78
2023/01/21 03:11:59;;;;;;;6.80;3.50;;;;;;;1.10;93.78;98517.20;108195;1278;25274;-75
2023/01/21 03:17:47;;;;;;;7.30;3.90;;;;;;;1.08;94.55;98527.44;107421;1277;25383;-75
2023/01/21 03:20:24;;;;;;;6.10;3.50;;;;;;;1.08;94.17;98528.45;107364;1278;24209;-75
2023/01/21 03:22:59;;;;;;;5.60;3.70;;;;;;;1.06;94.08;98527.42;107668;1277;22523;-75
2023/01/21 03:25:30;;;;;;;7.80;3.40;;;;;;;1.03;94.42;98528.10;107278;1278;25275;-75
2023/01/21 03:28:02;;;;;;;9.50;3.80;;;;;;;1.02;94.36;98530.14;107177;1278;22633;-75
2023/01/21 03:30:33;;;;;;;5.90;3.90;;;;;;;0.99;94.76;98533.36;107248;1276;24419;-77
2023/01/21 03:33:03;;;;;;;6.40;3.60;;;;;;;0.97;95.21;98542.06;107325;1278;24263;-76
2023/01/21 03:35:36;;;;;;;7.10;3.20;;;;;;;0.97;95.32;98546.15;110100;1276;22341;-76
2023/01/21 03:38:07;;;;;;;6.30;3.40;;;;;;;0.97;95.25;98549.56;110248;1278;22986;-75
2023/01/21 03:40:43;;;;;;;5.80;3.60;;;;;;;0.98;94.65;98546.85;110258;1278;22314;-76
2023/01/21 03:43:12;;;;;;;6.40;3.60;;;;;;;0.98;94.61;98551.45;110282;1266;22217;-76
2023/01/21 03:45:51;;;;;;;7.90;3.70;;;;;;;0.98;94.66;98554.35;110279;1270;22177;-76
2023/01/21 03:48:41;;;;;;;6.00;3.20;;;;;;;0.97;95.03;98543.92;110271;1277;22403;-76
2023/01/21 03:51:17;;;;;;;6.50;4.10;;;;;;;0.95;94.67;98534.54;110272;1278;22226;-78
2023/01/21 03:53:51;;;;;;;6.80;3.50;;;;;;;0.93;94.66;98536.92;110256;1273;22288;-79
2023/01/21 03:56:19;;;;;;;9.00;3.50;;;;;;;0.91;94.76;98534.35;110257;1277;22964;-78
2023/01/21 03:58:47;;;;;;;7.60;3.50;;;;;;;0.89;94.19;98536.73;110315;1277;22281;-76
2023/01/21 04:01:15;;;;;;;6.90;3.70;;;;;;;0.84;94.28;98553.09;110280;1277;22349;-76
2023/01/21 04:03:44;;;;;;;6.70;3.80;;;;;;;0.80;94.52;98557.67;110326;1277;22810;-76
2023/01/21 04:06:15;;;;;;;7.60;3.70;;;;;;;0.76;94.52;98555.95;110091;1273;22165;-77
2023/01/21 04:08:46;;;;;;;8.00;3.30;;;;;;;0.71;95.19;98557.97;108354;1278;24080;-78
2023/01/21 04:11:15;;;;;;;8.10;3.50;;;;;;;0.69;94.20;98548.58;107267;1277;24562;-76
2023/01/21 04:13:43;;;;;;;7.20;3.70;;;;;;;0.64;95.05;98540.70;107308;1277;24263;-76
2023/01/21 04:16:15;;;;;;;6.70;4.00;;;;;;;0.62;95.08;98539.14;108536;1278;22659;-76
2023/01/21 04:18:43;;;;;;;8.80;4.10;;;;;;;0.62;95.00;98535.39;108918;1277;25933;-77
2023/01/21 04:21:14;;;;;;;8.00;4.40;;;;;;;0.60;95.39;98530.61;108920;1278;23810;-76
2023/01/21 04:23:43;;;;;;;7.90;4.40;;;;;;;0.60;95.66;98528.91;108723;1278;22485;-77
2023/01/21 04:26:15;;;;;;;8.30;4.30;;;;;;;0.61;95.82;98527.03;108702;1277;23943;-77
2023/01/21 04:28:46;;;;;;;8.40;3.60;;;;;;;0.63;95.40;98529.94;108787;1278;22527;-78
2023/01/21 04:31:15;;;;;;;9.30;4.80;;;;;;;0.63;95.85;98534.20;108132;1277;22782;-76
2023/01/21 04:33:43;;;;;;;10.20;4.10;;;;;;;0.62;95.91;98536.43;107441;1278;22782;-75
2023/01/21 04:36:12;;;;;;;7.50;3.50;;;;;;;0.63;96.12;98536.08;107222;1276;23775;-76
2023/01/21 04:38:41;;;;;;;11.70;6.10;;;;;;;0.64;95.61;98533.70;107368;1270;22549;-76
2023/01/21 04:41:09;;;;;;;14.00;7.50;;;;;;;0.65;95.43;98538.15;107445;1277;22583;-75
2023/01/21 04:43:37;;;;;;;12.90;6.10;;;;;;;0.67;95.52;98538.84;107224;1276;22520;-76
2023/01/21 04:46:05;;;;;;;13.80;7.60;;;;;;;0.67;95.41;98541.73;107232;1278;22538;-76
2023/01/21 04:48:34;;;;;;;9.10;5.50;;;;;;;0.67;95.02;98547.02;107133;1277;24327;-76
2023/01/21 04:51:02;;;;;;;9.30;4.50;;;;;;;0.64;95.01;98548.71;107282;1278;24734;-77
2023/01/21 04:53:31;;;;;;;8.20;4.30;;;;;;;0.63;95.10;98551.42;107022;1278;22526;-77
2023/01/21 04:55:59;;;;;;;8.60;4.40;;;;;;;0.60;95.10;98555.34;107286;1278;24409;-78
2023/01/21 04:58:28;;;;;;;10.00;4.70;;;;;;;0.58;94.66;98549.70;107099;1278;23927;-75
2023/01/21 05:00:56;;;;;;;7.60;4.70;;;;;;;0.56;95.08;98546.79;107214;1277;24223;-76
2023/01/21 05:03:27;;;;;;;7.90;4.40;;;;;;;0.55;95.40;98551.73;107243;1277;22585;-76
2023/01/21 05:05:56;;;;;;;8.10;4.00;;;;;;;0.55;95.07;98559.58;107070;1278;25280;-78
2023/01/21 05:08:24;;;;;;;12.30;5.50;;;;;;;0.53;94.69;98558.89;107183;1277;24256;-79
2023/01/21 05:10:52;;;;;;;8.80;4.90;;;;;;;0.50;94.97;98571.83;107319;1277;25331;-77
2023/01/21 05:13:20;;;;;;;12.30;5.30;;;;;;;0.47;94.68;98590.90;107323;1277;22630;-77
2023/01/21 05:15:48;;;;;;;11.70;5.40;;;;;;;0.40;95.18;98603.45;107177;1277;22929;-76
2023/01/21 05:18:17;;;;;;;9.50;4.60;;;;;;;0.37;94.31;98608.38;107373;1277;22516;-77
2023/01/21 05:20:45;;;;;;;11.00;4.90;;;;;;;0.32;95.43;98615.15;107410;1271;25010;-76
2023/01/21 05:23:16;;;;;;;10.20;4.80;;;;;;;0.28;95.13;98606.60;107108;1278;22694;-76
2023/01/21 05:25:48;;;;;;;8.50;4.30;;;;;;;0.24;95.29;98602.14;107418;1277;22648;-76
2023/01/21 05:28:16;;;;;;;8.40;4.10;;;;;;;0.20;95.72;98620.17;107483;1277;24355;-76
2023/01/21 05:30:44;;;;;;;8.60;4.30;;;;;;;0.18;95.78;98624.07;107327;1276;23752;-75
2023/01/21 05:33:13;;;;;;;9.20;4.50;;;;;;;0.17;96.00;98622.70;107076;1278;22533;-76
2023/01/21 05:35:41;;;;;;;9.30;4.10;;;;;;;0.15;95.41;98626.95;107285;1270;22523;-76
2023/01/21 05:38:12;;;;;;;5.90;3.30;;;;;;;0.13;95.08;98620.45;107158;1277;24236;-76
2023/01/21 05:40:40;;;;;;;8.10;4.40;;;;;;;0.10;94.37;98618.71;107129;1273;22813;-76
2023/01/21 05:43:08;;;;;;;8.30;4.20;;;;;;;0.06;94.78;98627.89;107347;1277;23147;-76
2023/01/21 05:45:36;;;;;;;8.40;4.00;;;;;;;0.04;95.58;98638.59;107432;1277;22638;-76
2023/01/21 05:48:05;;;;;;;8.00;3.90;;;;;;;0.02;95.62;98647.28;107332;1278;25284;-77
2023/01/21 05:50:33;;;;;;;7.30;3.60;;;;;;;0.01;95.81;98648.11;107327;1278;22564;-76
2023/01/21 05:53:01;;;;;;;13.60;5.60;;;;;;;-0.01;94.24;98646.91;107397;1277;24315;-76
2023/01/21 05:55:29;;;;;;;13.60;6.40;;;;;;;-0.02;94.45;98656.25;107384;1277;22558;-75
2023/01/21 05:57:58;;;;;;;10.80;5.80;;;;;;;-0.01;94.76;98655.25;107415;1277;24257;-76
2023/01/21 06:00:26;;;;;;;14.50;5.90;;;;;;;0.00;95.38;98653.39;107187;1267;22599;-76
2023/01/21 06:02:54;;;;;;;13.90;6.20;;;;;;;0.03;94.73;98661.25;107346;1277;24373;-76
2023/01/21 06:05:22;;;;;;;15.00;6.70;;;;;;;0.07;95.54;98667.27;107389;1276;24256;-76
2023/01/21 06:07:51;;;;;;;14.00;6.10;;;;;;;0.11;95.20;98672.06;107348;1277;25472;-75
2023/01/21 06:10:19;;;;;;;18.30;6.90;;;;;;;0.15;95.24;98676.87;107329;1277;22621;-76
2023/01/21 06:12:50;;;;;;;34.80;12.40;;;;;;;0.20;95.46;98671.48;107412;1269;22548;-75
2023/01/21 06:15:19;;;;;;;33.10;11.90;;;;;;;0.27;95.53;98670.17;107175;1278;25214;-76
2023/01/21 06:17:47;;;;;;;19.60;10.00;;;;;;;0.29;95.30;98659.45;107335;1278;22554;-75
2023/01/21 06:20:16;;;;;;;16.20;7.90;;;;;;;0.28;95.55;98659.62;107394;1277;24279;-75
2023/01/21 06:22:44;;;;;;;14.80;8.00;;;;;;;0.30;95.46;98663.05;107291;1277;22520;-75
2023/01/21 06:25:12;;;;;;;26.60;9.80;;;;;;;0.33;95.91;98671.43;107231;1267;22637;-75
2023/01/21 06:27:41;;;;;;;20.80;9.90;;;;;;;0.41;96.31;98686.49;107363;1277;25293;-76
2023/01/21 06:30:10;;;;;;;24.90;10.00;;;;;;;0.49;96.53;98687.08;107186;1278;26977;-75
2023/01/21 06:32:38;;;;;;;21.10;9.00;;;;;;;0.57;96.50;98685.80;107357;1277;22646;-76
2023/01/21 06:35:07;;;;;;;25.30;9.60;;;;;;;0.63;96.53;98688.55;107363;1277;25340;-76
2023/01/21 06:37:35;;;;;;;19.60;8.90;;;;;;;0.68;96.44;98702.59;107216;1278;22625;-75
2023/01/21 06:40:07;;;;;;;18.50;7.40;;;;;;;0.71;96.10;98715.23;107315;1277;22542;-76
2023/01/21 06:42:39;;;;;;;17.40;8.30;;;;;;;0.72;96.16;98721.73;110227;1277;22414;-76
2023/01/21 06:45:10;;;;;;;16.80;7.60;;;;;;;0.71;95.82;98728.89;109970;1278;22237;-76
2023/01/21 06:47:45;;;;;;;15.30;7.10;;;;;;;0.67;95.44;98726.63;110262;1277;22179;-76
2023/01/21 06:50:15;;;;;;;11.60;6.60;;;;;;;0.68;95.81;98730.74;110267;1277;22388;-76
2023/01/21 06:52:48;;;;;;;15.70;6.80;;;;;;;0.68;95.67;98730.91;110269;1277;23604;-77
2023/01/21 06:55:17;;;;;;;15.40;7.90;;;;;;;0.69;95.86;98731.77;110279;1277;22275;-76
2023/01/21 06:57:45;;;;;;;16.50;8.90;;;;;;;0.69;95.64;98734.83;110278;1277;22207;-76
2023/01/21 07:00:19;;;;;;;14.20;7.20;;;;;;;0.70;95.42;98725.98;110284;1277;22985;-76
2023/01/21 07:02:57;;;;;;;16.30;8.20;;;;;;;0.66;95.21;98719.47;109084;1277;22560;-76
2023/01/21 07:05:28;;;;;;;15.50;9.20;;;;;;;0.67;95.65;98730.04;107308;1277;23897;-76
2023/01/21 07:07:57;;;;;;;18.10;7.70;;;;;;;0.68;95.59;98723.40;107297;1277;25512;-76
2023/01/21 07:10:25;;;;;;;17.10;8.00;;;;;;;0.68;95.46;98719.98;107183;1277;24232;-75
2023/01/21 07:12:53;;;;;;;16.10;9.60;;;;;;;0.69;95.45;98731.42;107288;1270;25287;-75
2023/01/21 07:15:22;;;;;;;22.80;12.20;;;;;;;0.72;95.94;98736.56;107367;1267;22643;-75
2023/01/21 07:17:52;;;;;;;26.20;13.80;;;;;;;0.76;96.13;98731.65;107313;1277;24269;-76
2023/01/21 07:20:21;;;;;;;29.80;12.20;;;;;;;0.81;96.21;98730.49;107280;1267;23934;-76
2023/01/21 07:22:52;;;;;;;32.50;12.20;;;;;;;0.86;95.99;98729.52;110240;1278;22160;-77
2023/01/21 07:25:20;;;;;;;23.90;11.50;;;;;;;0.92;95.88;98731.27;110312;1277;22211;-77
2023/01/21 07:27:49;;;;;;;23.30;11.80;;;;;;;1.01;96.06;98725.52;110111;1272;22218;-76
2023/01/21 07:30:19;;;;;;;21.90;10.40;;;;;;;1.10;95.51;98728.67;110126;1276;23094;-76
2023/01/21 07:32:47;;;;;;;23.80;11.80;;;;;;;1.19;95.80;98732.48;110288;1270;22206;-77
2023/01/21 07:35:16;;;;;;;22.10;10.40;;;;;;;1.29;95.54;98749.29;110108;1269;22217;-76
2023/01/21 07:37:44;;;;;;;20.00;10.00;;;;;;;1.39;95.50;98757.03;110270;1278;23277;-76
2023/01/21 07:40:15;;;;;;;21.30;11.10;;;;;;;1.52;95.52;98744.98;110106;1277;23015;-76
2023/01/21 07:42:49;;;;;;;18.80;10.60;;;;;;;1.64;95.64;98741.46;107235;1277;24360;-76
2023/01/21 07:45:19;;;;;;;57.10;23.80;;;;;;;1.77;95.62;98753.31;110099;1278;22182;-76
2023/01/21 07:47:47;;;;;;;37.20;18.00;;;;;;;1.92;95.56;98765.69;109012;1277;22653;-77
2023/01/21 07:50:16;;;;;;;18.00;9.60;;;;;;;2.11;95.96;98772.95;107323;1277;24374;-76
2023/01/21 07:52:44;;;;;;;22.30;8.80;;;;;;;2.28;95.52;98781.20;107240;1261;25238;-76
2023/01/21 07:55:13;;;;;;;17.90;8.00;;;;;;;2.39;95.25;98781.75;107343;1276;22523;-76
2023/01/21 07:57:42;;;;;;;19.40;9.30;;;;;;;2.49;94.98;98784.35;107379;1275;23358;-77
2023/01/21 08:00:11;;;;;;;21.60;10.20;;;;;;;2.57;94.85;98784.70;107433;1275;22523;-78
2023/01/21 08:02:39;;;;;;;20.20;10.70;;;;;;;2.66;94.16;98785.75;108821;1270;24216;-76
2023/01/21 08:05:09;;;;;;;18.00;8.90;;;;;;;2.75;93.78;98786.96;109027;1270;22563;-80
2023/01/21 08:07:37;;;;;;;14.10;9.10;;;;;;;2.81;93.00;98789.88;108852;1277;23424;-77
2023/01/21 08:10:08;;;;;;;26.70;14.40;;;;;;;2.87;92.60;98801.52;108850;1277;22496;-77
2023/01/21 08:12:37;;;;;;;20.90;10.00;;;;;;;2.91;92.60;98809.91;107723;1277;22556;-75
2023/01/21 08:15:09;;;;;;;24.80;11.80;;;;;;;2.94;91.87;98822.06;107367;1277;24156;-75
2023/01/21 08:17:47;;;;;;;15.20;6.70;;;;;;;3.00;92.03;98823.29;110098;1276;22662;-76
2023/01/21 08:20:15;;;;;;;9.40;6.00;;;;;;;3.03;91.43;98829.27;110119;1277;23058;-76
2023/01/21 08:22:44;;;;;;;11.10;5.90;;;;;;;3.09;91.61;98831.50;110275;1270;22160;-76
2023/01/21 08:25:12;;;;;;;10.20;6.00;;;;;;;3.12;90.74;98828.94;110275;1277;22210;-76
2023/01/21 08:27:40;;;;;;;9.60;4.70;;;;;;;3.20;90.98;98824.14;110229;1277;22317;-76
2023/01/21 08:30:09;;;;;;;6.90;4.00;;;;;;;3.24;89.07;98814.22;110123;1277;23574;-77
2023/01/21 08:32:38;;;;;;;9.70;5.60;;;;;;;3.24;88.30;98805.30;110279;1277;22164;-76
2023/01/21 08:35:07;;;;;;;7.30;4.30;;;;;;;3.23;88.31;98810.44;108941;1277;22532;-76
2023/01/21 08:37:35;;;;;;;7.50;4.50;;;;;;;3.19;88.27;98818.84;107316;1276;22655;-77
2023/01/21 08:40:05;;;;;;;9.50;4.80;;;;;;;3.21;89.23;98828.77;107310;1278;22552;-76
2023/01/21 08:42:33;;;;;;;7.80;4.30;;;;;;;3.11;87.68;98839.04;110290;1277;22206;-76
2023/01/21 08:45:02;;;;;;;7.60;4.00;;;;;;;3.09;88.21;98840.05;110295;1277;23173;-77
2023/01/21 08:47:36;;;;;;;7.70;4.30;;;;;;;3.12;88.94;98834.94;108920;1276;22538;-76
2023/01/21 08:50:06;;;;;;;7.70;4.00;;;;;;;3.13;88.60;98839.90;107057;1277;24709;-77
2023/01/21 08:52:35;;;;;;;8.90;4.80;;;;;;;3.15;88.71;98849.65;107161;1277;22536;-77
2023/01/21 08:55:06;;;;;;;11.00;4.70;;;;;;;3.19;88.58;98865.42;107337;1277;22519;-76
2023/01/21 08:57:35;;;;;;;16.50;9.00;;;;;;;3.19;88.13;98879.47;107686;1277;22526;-79
2023/01/21 09:00:04;;;;;;;9.20;4.90;;;;;;;3.18;87.87;98884.42;108247;1277;22603;-77
2023/01/21 09:02:35;;;;;;;9.80;4.40;;;;;;;3.18;87.96;98882.89;107433;1277;23711;-76
2023/01/21 09:05:04;;;;;;;10.40;5.50;;;;;;;3.17;87.54;98886.66;107240;1277;22519;-76
2023/01/21 09:07:32;;;;;;;9.80;4.10;;;;;;;3.16;87.57;98883.57;107217;1277;25337;-76
2023/01/21 09:10:02;;;;;;;8.30;5.00;;;;;;;3.15;86.96;98879.45;107263;1276;23943;-77
2023/01/21 09:12:31;;;;;;;8.30;4.70;;;;;;;3.13;86.62;98879.46;107275;1277;23307;-76
2023/01/21 09:14:59;;;;;;;10.20;4.80;;;;;;;3.16;87.50;98878.61;107187;1277;22538;-76
2023/01/21 09:17:27;;;;;;;8.20;4.40;;;;;;;3.17;86.73;98875.52;107229;1277;27697;-75
2023/01/21 09:19:55;;;;;;;6.80;4.20;;;;;;;3.20;86.70;98870.55;107290;1277;23622;-77
2023/01/21 09:22:24;;;;;;;7.80;4.40;;;;;;;3.24;86.64;98871.08;107305;1277;24276;-76
2023/01/21 09:24:52;;;;;;;9.60;4.60;;;;;;;3.29;86.62;98876.91;107312;1269;24369;-76
2023/01/21 09:27:26;;;;;;;8.60;5.10;;;;;;;3.34;87.02;98881.20;107381;1273;24248;-76
2023/01/21 09:29:57;;;;;;;16.80;7.80;;;;;;;3.38;86.95;98887.87;107119;1277;24236;-76
2023/01/21 09:32:25;;;;;;;12.40;5.00;;;;;;;3.45;86.42;98890.78;107141;1263;22649;-76
2023/01/21 09:34:54;;;;;;;11.10;5.20;;;;;;;3.54;86.86;98889.94;107243;1278;23319;-77
2023/01/21 09:37:22;;;;;;;8.40;4.90;;;;;;;3.59;86.02;98879.64;107316;1275;22543;-76
2023/01/21 09:39:50;;;;;;;9.20;4.10;;;;;;;3.65;86.49;98873.98;107344;1276;22572;-76
2023/01/21 09:42:24;;;;;;;14.10;4.40;;;;;;;3.71;86.55;98878.27;107328;1278;22622;-77
2023/01/21 09:44:55;;;;;;;10.20;5.50;;;;;;;3.72;86.79;98879.98;107249;1278;25381;-76
2023/01/21 09:47:32;;;;;;;9.60;5.00;;;;;;;3.76;86.58;98881.52;107277;1277;22940;-76
2023/01/21 09:50:13;;;;;;;9.90;5.20;;;;;;;3.81;87.17;98873.63;107321;1277;22566;-76
2023/01/21 09:52:48;;;;;;;11.30;5.50;;;;;;;3.84;87.09;98874.15;107220;1276;25497;-76
2023/01/21 09:55:32;;;;;;;13.30;5.70;;;;;;;3.89;86.49;98882.70;107261;1277;22529;-76
2023/01/21 09:58:10;;;;;;;9.20;5.80;;;;;;;3.94;85.50;98885.78;107306;1276;24270;-76
2023/01/21 10:00:51;;;;;;;7.40;4.40;;;;;;;3.96;85.08;98889.38;107243;1277;23246;-76
2023/01/21 10:03:54;;;;;;;6.80;4.30;;;;;;;3.96;84.91;98883.05;107364;1276;22505;-76
2023/01/21 10:06:47;;;;;;;7.90;4.70;;;;;;;3.95;84.42;98889.04;107218;1276;22569;-77
2023/01/21 10:10:16;;;;;;;8.70;4.60;;;;;;;3.98;84.49;98904.29;107330;1277;22630;-76
2023/01/21 10:13:32;;;;;;;7.40;3.90;;;;;;;3.96;83.79;98905.66;106865;1282;25641;-76
2023/01/21 10:16:20;;;;;;;7.70;4.30;;;;;;;3.91;83.52;98901.90;107094;1277;22762;-76
2023/01/21 10:18:54;;;;;;;12.20;5.90;;;;;;;3.94;84.48;98902.24;107325;1277;23923;-76
2023/01/21 10:21:34;;;;;;;9.70;5.30;;;;;;;3.96;83.24;98890.42;107345;1254;22652;-76
2023/01/21 10:24:14;;;;;;;12.50;5.60;;;;;;;3.98;83.62;98892.98;107235;1277;25427;-75
2023/01/21 10:26:47;;;;;;;9.60;5.20;;;;;;;4.05;84.76;98896.73;107336;1277;24216;-76
2023/01/21 10:29:18;;;;;;;12.50;4.80;;;;;;;4.13;84.65;98898.77;110113;1277;22941;-76
2023/01/21 10:32:06;;;;;;;7.20;3.90;;;;;;;4.21;83.35;98897.55;110318;1275;22232;-76
2023/01/21 10:34:51;;;;;;;7.10;4.00;;;;;;;4.17;83.02;98887.62;110259;1278;22213;-77
2023/01/21 10:37:47;;;;;;;10.20;3.60;;;;;;;4.23;82.83;98890.34;109719;1270;22651;-76
2023/01/21 10:40:45;;;;;;;6.30;3.70;;;;;;;4.30;82.93;98890.67;107232;1277;23002;-76
2023/01/21 10:43:24;;;;;;;7.40;3.90;;;;;;;4.31;82.94;98887.59;107310;1271;24219;-76
2023/01/21 10:46:43;;;;;;;8.80;4.70;;;;;;;4.36;82.44;98875.89;107239;1278;22542;-76
2023/01/21 10:49:50;;;;;;;11.40;4.60;;;;;;;4.47;82.56;98876.54;107273;1266;23765;-76
2023/01/21 10:52:33;;;;;;;9.30;4.30;;;;;;;4.59;80.93;98870.48;107283;1273;22572;-76
2023/01/21 10:55:42;;;;;;;8.50;4.10;;;;;;;4.70;81.12;98857.05;107289;1277;25363;-75
2023/01/21 10:58:37;;;;;;;9.00;4.20;;;;;;;4.83;81.05;98865.39;107277;1277;25258;-76
2023/01/21 11:01:15;;;;;;;9.80;4.70;;;;;;;4.82;79.38;98864.35;107308;1278;25409;-76
2023/01/21 11:03:49;;;;;;;7.70;4.20;;;;;;;4.87;80.02;98852.64;110258;1273;23201;-77
2023/01/21 11:06:23;;;;;;;6.40;3.30;;;;;;;4.88;79.00;98852.30;110288;1275;22231;-77
2023/01/21 11:08:57;;;;;;;8.10;4.00;;;;;;;4.96;79.51;98850.71;110296;1274;22294;-77
2023/01/21 11:11:34;;;;;;;6.70;3.60;;;;;;;4.99;78.22;98848.10;108358;1270;22520;-76
2023/01/21 11:14:02;;;;;;;7.60;3.80;;;;;;;5.00;79.97;98840.37;108033;1277;23498;-77
2023/01/21 11:16:39;;;;;;;11.30;3.60;;;;;;;4.98;78.27;98833.52;107392;1277;23076;-76
2023/01/21 11:19:14;;;;;;;9.30;4.10;;;;;;;4.91;77.98;98834.24;107387;1277;22525;-77
2023/01/21 11:22:07;;;;;;;7.40;3.90;;;;;;;4.95;78.94;98844.88;110324;1277;22236;-76
2023/01/21 11:24:45;;;;;;;7.10;3.70;;;;;;;4.98;78.80;98844.86;110293;1277;22302;-76
2023/01/21 11:27:40;;;;;;;6.60;3.80;;;;;;;4.99;79.16;98845.88;109721;1277;22553;-76
2023/01/21 11:30:39;;;;;;;7.10;3.60;;;;;;;4.99;79.44;98843.30;108134;1277;22542;-77
2023/01/21 11:33:28;;;;;;;10.10;4.20;;;;;;;5.04;78.16;98843.27;108275;1277;22488;-76
2023/01/21 11:36:11;;;;;;;7.10;3.90;;;;;;;5.09;77.05;98840.14;108460;1278;25274;-76
2023/01/21 11:38:44;;;;;;;8.60;4.40;;;;;;;5.15;78.11;98839.06;108209;1277;23686;-79
2023/01/21 11:41:12;;;;;;;8.60;4.40;;;;;;;5.16;77.46;98840.59;108218;1277;22597;-76
2023/01/21 11:43:46;;;;;;;6.80;3.70;;;;;;;5.18;76.15;98846.77;107362;1277;25423;-82
2023/01/21 11:46:37;;;;;;;6.70;3.80;;;;;;;5.16;76.68;98844.90;110291;1277;22245;-76
2023/01/21 11:49:05;;;;;;;5.90;3.00;;;;;;;5.13;76.24;98839.93;110121;1277;23052;-76
2023/01/21 11:51:35;;;;;;;6.00;2.90;;;;;;;5.10;75.79;98844.95;110282;1277;22298;-76
2023/01/21 11:54:09;;;;;;;5.60;3.00;;;;;;;5.14;76.46;98846.80;110202;1277;22324;-76
2023/01/21 11:56:42;;;;;;;10.00;4.50;;;;;;;5.11;76.14;98841.52;108225;1277;22664;-76
2023/01/21 11:59:34;;;;;;;9.10;4.40;;;;;;;5.07;77.47;98836.89;107378;1277;23288;-76
2023/01/21 12:02:25;;;;;;;10.80;5.50;;;;;;;5.08;78.60;98834.14;107161;1277;22708;-79
2023/01/21 12:05:07;;;;;;;9.00;4.50;;;;;;;5.07;77.47;98837.07;107398;1277;22526;-78